Time;durP1;ratioP1;P1;durP2;ratioP2;P2;SDS_P1;SDS_P2;PMS_P1;PMS_P2;Temp;Humidity;BMP_temperature;BMP_pressure;BME280_temperature;BME280_humidity;BME280_pressure;Samples;Min_cycle;Max_cycle;Signal;HPM_P1;HPM_P2
2021/08/02 00:00:56;;;;;;;0.90;0.52;;;24.20;62.80;;;;;;4990054;28;20778;-63
2021/08/02 00:03:29;;;;;;;1.13;0.57;;;24.20;62.80;;;;;;4988852;28;20893;-63
2021/08/02 00:05:57;;;;;;;1.40;0.70;;;24.20;62.80;;;;;;4988125;28;20430;-63
2021/08/02 00:08:25;;;;;;;1.02;0.60;;;24.20;62.80;;;;;;4987988;28;20387;-63
2021/08/02 00:10:52;;;;;;;1.00;0.50;;;24.20;62.70;;;;;;4989969;28;20407;-63
2021/08/02 00:13:28;;;;;;;1.70;0.50;;;24.20;62.70;;;;;;4990314;28;20448;-63
2021/08/02 00:16:05;;;;;;;1.50;0.77;;;24.10;62.70;;;;;;4993874;28;20390;-63
2021/08/02 00:18:33;;;;;;;2.00;0.60;;;24.20;63.40;;;;;;4988474;28;20425;-63
2021/08/02 00:21:03;;;;;;;3.42;0.70;;;24.20;62.70;;;;;;4989160;28;20430;-63
2021/08/02 00:23:28;;;;;;;2.10;0.50;;;24.20;62.70;;;;;;4992962;28;20942;-63
2021/08/02 00:26:01;;;;;;;1.53;0.50;;;24.10;62.70;;;;;;4984051;28;20512;-63
2021/08/02 00:28:29;;;;;;;1.17;0.50;;;24.10;62.70;;;;;;4987015;28;20401;-63
2021/08/02 00:30:56;;;;;;;1.38;0.63;;;24.10;62.70;;;;;;4987238;28;20896;-63
2021/08/02 00:33:22;;;;;;;1.55;0.52;;;24.10;62.70;;;;;;4989812;28;20881;-63
2021/08/02 00:36:03;;;;;;;1.30;0.60;;;24.10;62.70;;;;;;4989834;28;20393;-63
2021/08/02 00:38:34;;;;;;;1.08;0.47;;;24.10;63.00;;;;;;4989491;28;20911;-63
2021/08/02 00:41:38;;;;;;;1.02;0.50;;;24.10;62.70;;;;;;4989251;28;20389;-63
2021/08/02 00:44:42;;;;;;;2.20;0.60;;;24.10;62.70;;;;;;4978337;28;20453;-63
2021/08/02 00:47:16;;;;;;;1.48;0.60;;;24.10;62.70;;;;;;4987414;28;20419;-63
2021/08/02 00:50:02;;;;;;;1.20;0.60;;;24.10;62.60;;;;;;4995233;28;20400;-63
2021/08/02 00:52:28;;;;;;;1.55;0.75;;;24.10;62.60;;;;;;4992778;28;20383;-63
2021/08/02 00:54:58;;;;;;;0.95;0.57;;;24.10;62.60;;;;;;4992377;28;20887;-63
2021/08/02 00:57:30;;;;;;;0.85;0.50;;;24.00;62.60;;;;;;4993326;28;20402;-64
2021/08/02 01:00:02;;;;;;;1.30;0.60;;;24.00;62.50;;;;;;4990057;28;20394;-63
2021/08/02 01:02:29;;;;;;;1.05;0.40;;;24.00;62.60;;;;;;4985801;28;20396;-63
2021/08/02 01:04:54;;;;;;;1.35;0.60;;;24.00;62.60;;;;;;4988944;28;20405;-63
2021/08/02 01:07:22;;;;;;;1.05;0.60;;;24.00;62.60;;;;;;4989366;28;20923;-63
2021/08/02 01:09:48;;;;;;;1.00;0.50;;;24.00;62.60;;;;;;4989349;28;20390;-63
2021/08/02 01:12:15;;;;;;;1.52;0.52;;;24.00;62.50;;;;;;4987502;28;20406;-63
2021/08/02 01:14:41;;;;;;;0.85;0.50;;;24.00;62.50;;;;;;4989202;28;20382;-64
2021/08/02 01:17:10;;;;;;;1.20;0.50;;;24.00;62.50;;;;;;4988897;28;20415;-63
2021/08/02 01:19:37;;;;;;;1.77;0.63;;;24.00;62.50;;;;;;4995044;28;20456;-63
2021/08/02 01:22:04;;;;;;;0.90;0.50;;;24.00;62.60;;;;;;4991724;28;20410;-63
2021/08/02 01:24:33;;;;;;;1.20;0.57;;;24.00;62.50;;;;;;4989578;28;20417;-63
2021/08/02 01:26:59;;;;;;;1.00;0.40;;;24.00;62.50;;;;;;4993769;28;20403;-63
2021/08/02 01:30:02;;;;;;;1.08;0.60;;;23.90;62.40;;;;;;4995219;28;20759;-63
2021/08/02 01:32:28;;;;;;;1.20;0.55;;;23.90;62.40;;;;;;4985105;28;20403;-63
2021/08/02 01:34:55;;;;;;;1.10;0.43;;;24.00;62.50;;;;;;4984714;28;20830;-63
2021/08/02 01:37:21;;;;;;;1.13;0.60;;;23.90;62.40;;;;;;4985826;28;20448;-63
2021/08/02 01:39:52;;;;;;;0.98;0.50;;;23.90;62.40;;;;;;4988798;28;20385;-63
2021/08/02 01:42:18;;;;;;;0.95;0.55;;;23.90;62.50;;;;;;4988782;28;20407;-63
2021/08/02 01:44:43;;;;;;;0.97;0.60;;;23.90;62.40;;;;;;4993122;28;20423;-63
2021/08/02 01:47:09;;;;;;;1.10;0.60;;;23.90;62.40;;;;;;4986170;28;20394;-63
2021/08/02 01:49:39;;;;;;;1.10;0.50;;;23.90;62.40;;;;;;5025112;28;20393;-63
2021/08/02 01:52:15;;;;;;;0.90;0.50;;;23.90;62.40;;;;;;4992140;28;20500;-63
2021/08/02 01:54:53;;;;;;;0.85;0.40;;;23.90;62.40;;;;;;5023893;28;20389;-63
2021/08/02 01:57:38;;;;;;;0.95;0.50;;;23.90;62.40;;;;;;4990632;28;20386;-64
2021/08/02 02:00:09;;;;;;;1.10;0.60;;;23.90;62.40;;;;;;4983240;28;20486;-63
2021/08/02 02:02:37;;;;;;;0.70;0.40;;;23.90;62.40;;;;;;4988312;28;20545;-63
2021/08/02 02:05:13;;;;;;;1.03;0.47;;;23.90;62.40;;;;;;4989279;28;20906;-63
2021/08/02 02:07:49;;;;;;;1.20;0.40;;;23.90;62.40;;;;;;4989362;28;20745;-63
2021/08/02 02:10:18;;;;;;;0.73;0.40;;;23.90;62.40;;;;;;4989365;28;20964;-63
2021/08/02 02:12:44;;;;;;;0.98;0.50;;;23.80;62.20;;;;;;4994464;28;20417;-63
2021/08/02 02:15:10;;;;;;;0.80;0.40;;;23.80;62.20;;;;;;5024664;28;20388;-63
2021/08/02 02:17:37;;;;;;;0.90;0.40;;;23.80;62.30;;;;;;4989007;28;20751;-63
2021/08/02 02:20:05;;;;;;;0.77;0.50;;;23.80;62.40;;;;;;4989432;28;20469;-63
2021/08/02 02:22:33;;;;;;;0.70;0.45;;;23.80;62.20;;;;;;4989152;28;20765;-63
2021/08/02 02:25:00;;;;;;;0.70;0.40;;;23.80;62.30;;;;;;4991622;28;20921;-63
2021/08/02 02:27:26;;;;;;;0.65;0.40;;;23.80;62.30;;;;;;4993687;28;20521;-63
2021/08/02 02:29:54;;;;;;;0.75;0.40;;;23.80;62.30;;;;;;4993077;28;20463;-63
2021/08/02 02:32:20;;;;;;;0.90;0.50;;;23.80;62.20;;;;;;4987654;28;20390;-63
2021/08/02 02:34:48;;;;;;;0.70;0.40;;;23.80;62.30;;;;;;4988114;28;20444;-63
2021/08/02 02:37:14;;;;;;;0.90;0.50;;;23.80;62.20;;;;;;4991669;28;20397;-63
2021/08/02 02:39:41;;;;;;;0.93;0.50;;;23.80;62.30;;;;;;4989291;28;20427;-62
2021/08/02 02:42:08;;;;;;;1.30;0.50;;;23.80;62.20;;;;;;4989674;28;20408;-63
2021/08/02 02:44:36;;;;;;;1.00;0.50;;;23.80;62.20;;;;;;4999803;28;20460;-63
2021/08/02 02:47:03;;;;;;;1.10;0.60;;;23.80;62.20;;;;;;4995747;28;20768;-63
2021/08/02 02:49:30;;;;;;;0.70;0.40;;;23.80;62.30;;;;;;4992476;28;20392;-63
2021/08/02 02:51:57;;;;;;;0.68;0.47;;;23.80;62.20;;;;;;4992591;28;20409;-63
2021/08/02 02:54:23;;;;;;;0.90;0.40;;;23.80;62.20;;;;;;4996838;28;20396;-63
2021/08/02 02:56:55;;;;;;;1.00;0.37;;;23.70;62.20;;;;;;4992543;28;20463;-63
2021/08/02 02:59:21;;;;;;;0.82;0.40;;;23.80;62.20;;;;;;4994202;28;21181;-64
2021/08/02 03:01:50;;;;;;;0.80;0.50;;;23.70;62.10;;;;;;4990959;28;20399;-63
2021/08/02 03:04:20;;;;;;;0.80;0.40;;;23.70;62.20;;;;;;5023000;28;20391;-63
2021/08/02 03:06:46;;;;;;;0.70;0.35;;;23.70;62.10;;;;;;4991729;28;20408;-63
2021/08/02 03:09:16;;;;;;;0.70;0.40;;;23.70;62.00;;;;;;4990801;28;20440;-63
2021/08/02 03:11:43;;;;;;;1.38;0.50;;;23.70;62.10;;;;;;4991521;28;20399;-63
2021/08/02 03:14:09;;;;;;;1.27;0.60;;;23.70;63.20;;;;;;4994107;28;20390;-63
2021/08/02 03:16:34;;;;;;;1.00;0.50;;;23.80;63.90;;;;;;4998062;28;21348;-63
2021/08/02 03:19:00;;;;;;;1.75;0.70;;;23.70;63.00;;;;;;4990116;28;20429;-63
2021/08/02 03:21:27;;;;;;;3.60;0.65;;;23.80;63.50;;;;;;4990856;28;20397;-63
2021/08/02 03:24:18;;;;;;;3.53;0.60;;;23.70;63.50;;;;;;4991806;28;20397;-63
2021/08/02 03:27:00;;;;;;;2.27;0.50;;;23.80;65.00;;;;;;4992208;28;20919;-63
2021/08/02 03:29:34;;;;;;;2.53;0.60;;;23.90;64.80;;;;;;4993922;28;20384;-63
2021/08/02 03:32:04;;;;;;;2.00;0.70;;;23.90;65.10;;;;;;4992557;28;20398;-63
2021/08/02 03:34:33;;;;;;;1.92;0.70;;;23.90;65.10;;;;;;4987877;28;20444;-63
2021/08/02 03:37:00;;;;;;;3.10;0.60;;;23.90;64.80;;;;;;4990424;28;20399;-63
2021/08/02 03:39:27;;;;;;;2.20;0.50;;;23.90;64.80;;;;;;4994790;28;20394;-63
2021/08/02 03:41:54;;;;;;;2.78;0.50;;;23.90;64.10;;;;;;4993988;28;20413;-63
2021/08/02 03:44:21;;;;;;;1.33;0.47;;;23.90;64.70;;;;;;4995209;28;20396;-63
2021/08/02 03:46:47;;;;;;;2.42;0.60;;;23.90;64.70;;;;;;4995966;28;20401;-63
2021/08/02 03:49:13;;;;;;;1.90;0.52;;;24.00;64.90;;;;;;4995649;28;20385;-62
2021/08/02 03:51:52;;;;;;;2.03;0.60;;;24.00;65.00;;;;;;4995158;28;20987;-63
2021/08/02 03:54:18;;;;;;;0.93;0.50;;;24.00;64.00;;;;;;4989782;28;20482;-63
2021/08/02 03:56:45;;;;;;;2.28;0.60;;;24.00;64.10;;;;;;4994544;28;21116;-63
2021/08/02 03:59:11;;;;;;;1.20;0.40;;;23.90;63.80;;;;;;4994732;28;20897;-63
2021/08/02 04:01:42;;;;;;;2.33;0.60;;;23.90;63.50;;;;;;4995504;28;20482;-63
2021/08/02 04:04:08;;;;;;;1.58;0.55;;;23.90;63.80;;;;;;4990729;28;20397;-64
2021/08/02 04:06:35;;;;;;;2.15;0.70;;;24.00;63.70;;;;;;4990328;28;20513;-63
2021/08/02 04:09:04;;;;;;;2.28;0.50;;;23.90;63.30;;;;;;4989886;28;20394;-63
2021/08/02 04:11:29;;;;;;;2.50;0.68;;;23.90;63.20;;;;;;4996933;28;20411;-62
2021/08/02 04:13:55;;;;;;;3.37;0.60;;;23.90;62.50;;;;;;4986861;28;20398;-62
2021/08/02 04:16:21;;;;;;;1.63;0.63;;;23.80;62.70;;;;;;4993558;28;20412;-62
2021/08/02 04:18:46;;;;;;;2.20;0.63;;;23.80;62.60;;;;;;4993116;28;20417;-62
2021/08/02 04:21:12;;;;;;;4.80;0.80;;;23.80;62.50;;;;;;4991565;28;20505;-62
2021/08/02 04:23:38;;;;;;;2.50;0.53;;;23.80;62.30;;;;;;4984927;28;20410;-62
2021/08/02 04:26:05;;;;;;;2.25;0.60;;;23.80;62.40;;;;;;4992805;28;21030;-63
2021/08/02 04:28:30;;;;;;;1.77;0.50;;;23.80;62.20;;;;;;4987641;28;20403;-62
2021/08/02 04:30:56;;;;;;;1.92;0.50;;;23.70;62.10;;;;;;4991653;28;20402;-62
2021/08/02 04:33:23;;;;;;;1.70;0.50;;;23.70;62.20;;;;;;4990722;28;20784;-62
2021/08/02 04:35:49;;;;;;;2.40;0.60;;;23.70;62.20;;;;;;4992464;28;20403;-62
2021/08/02 04:38:15;;;;;;;1.05;0.47;;;23.70;62.00;;;;;;4989603;28;20405;-62
2021/08/02 04:40:40;;;;;;;1.73;0.40;;;23.70;62.10;;;;;;4999384;28;20397;-62
2021/08/02 04:43:06;;;;;;;1.00;0.50;;;23.70;62.00;;;;;;4989069;28;20405;-62
2021/08/02 04:45:31;;;;;;;2.20;0.50;;;23.70;62.00;;;;;;4988769;28;20426;-62
2021/08/02 04:47:57;;;;;;;1.35;0.40;;;23.70;62.20;;;;;;4988713;28;20388;-62
2021/08/02 04:50:23;;;;;;;1.23;0.60;;;23.70;62.00;;;;;;4989915;28;20486;-62
2021/08/02 04:52:50;;;;;;;1.17;0.50;;;23.70;62.00;;;;;;4991500;28;20545;-62
2021/08/02 04:55:17;;;;;;;0.80;0.50;;;23.70;61.90;;;;;;4989612;28;20498;-62
2021/08/02 04:57:43;;;;;;;1.42;0.40;;;23.70;61.90;;;;;;4991969;28;20391;-62
2021/08/02 05:00:09;;;;;;;1.00;0.40;;;23.70;61.90;;;;;;4992329;28;20917;-62
2021/08/02 05:02:35;;;;;;;0.90;0.50;;;23.70;62.00;;;;;;4992596;28;20402;-62
2021/08/02 05:05:00;;;;;;;3.20;0.50;;;23.70;61.90;;;;;;5021531;28;20417;-62
2021/08/02 05:07:26;;;;;;;2.60;0.50;;;23.60;61.80;;;;;;4993027;28;20525;-63
2021/08/02 05:09:51;;;;;;;1.30;0.50;;;23.60;61.80;;;;;;4991759;28;20425;-62
2021/08/02 05:12:17;;;;;;;1.08;0.43;;;23.60;61.80;;;;;;4996469;28;20397;-63
2021/08/02 05:14:43;;;;;;;1.40;0.40;;;23.60;61.70;;;;;;4984619;28;20422;-63
2021/08/02 05:17:09;;;;;;;0.65;0.40;;;23.60;61.70;;;;;;4992787;28;20496;-62
2021/08/02 05:19:35;;;;;;;1.90;0.52;;;23.60;61.80;;;;;;4993764;28;20383;-62
2021/08/02 05:22:00;;;;;;;0.70;0.40;;;23.60;61.70;;;;;;4986796;28;20397;-62
2021/08/02 05:24:26;;;;;;;1.00;0.50;;;23.60;61.80;;;;;;4989621;28;20751;-63
2021/08/02 05:26:52;;;;;;;0.98;0.40;;;23.60;61.70;;;;;;4987881;28;20896;-62
2021/08/02 05:29:17;;;;;;;1.03;0.40;;;23.60;61.70;;;;;;4991200;28;20875;-62
2021/08/02 05:31:43;;;;;;;0.85;0.50;;;23.60;61.60;;;;;;4989958;28;21010;-62
2021/08/02 05:34:11;;;;;;;0.90;0.50;;;23.60;61.70;;;;;;4991666;28;21233;-62
2021/08/02 05:36:38;;;;;;;1.15;0.47;;;23.60;61.80;;;;;;4989787;28;20393;-62
2021/08/02 05:39:03;;;;;;;1.10;0.40;;;23.60;61.70;;;;;;5023950;28;20463;-62
2021/08/02 05:41:29;;;;;;;0.88;0.50;;;23.60;61.70;;;;;;4989511;28;20817;-62
2021/08/02 05:43:55;;;;;;;0.85;0.40;;;23.60;61.70;;;;;;4989839;28;20489;-63
2021/08/02 05:46:20;;;;;;;1.00;0.60;;;23.60;61.60;;;;;;4989480;28;20437;-62
2021/08/02 05:48:47;;;;;;;0.70;0.40;;;23.60;61.70;;;;;;4990164;28;20475;-62
2021/08/02 05:51:13;;;;;;;0.90;0.50;;;23.60;61.70;;;;;;4988625;28;20394;-62
2021/08/02 05:53:38;;;;;;;1.00;0.50;;;23.60;61.60;;;;;;4989714;28;20387;-63
2021/08/02 05:56:04;;;;;;;0.93;0.50;;;23.60;61.70;;;;;;4982420;28;20417;-62
2021/08/02 05:58:30;;;;;;;0.60;0.30;;;23.60;61.60;;;;;;4983817;28;20894;-62
2021/08/02 06:00:55;;;;;;;1.30;0.50;;;23.50;61.60;;;;;;4987918;28;20882;-62
2021/08/02 06:03:21;;;;;;;0.87;0.40;;;23.50;61.70;;;;;;4999133;28;20811;-62
2021/08/02 06:05:47;;;;;;;0.90;0.50;;;23.60;61.70;;;;;;4989049;28;20432;-63
2021/08/02 06:08:13;;;;;;;0.80;0.40;;;23.50;61.70;;;;;;4992104;28;20389;-62
2021/08/02 06:10:39;;;;;;;0.70;0.30;;;23.60;61.70;;;;;;4997125;28;20501;-63
2021/08/02 06:13:05;;;;;;;0.73;0.40;;;23.50;61.60;;;;;;4996954;28;20430;-63
2021/08/02 06:15:30;;;;;;;0.63;0.40;;;23.60;61.70;;;;;;4997133;28;20450;-62
2021/08/02 06:17:56;;;;;;;1.42;0.35;;;23.50;61.60;;;;;;4997533;28;20405;-62
2021/08/02 06:20:22;;;;;;;0.77;0.40;;;23.50;61.60;;;;;;4986656;28;20429;-63
2021/08/02 06:22:47;;;;;;;0.80;0.40;;;23.50;61.60;;;;;;4988940;28;20399;-62
2021/08/02 06:25:13;;;;;;;0.70;0.47;;;23.50;61.60;;;;;;4992894;28;20414;-62
2021/08/02 06:27:39;;;;;;;0.77;0.40;;;23.50;61.60;;;;;;4993266;28;20453;-62
2021/08/02 06:30:06;;;;;;;1.20;0.40;;;23.50;61.60;;;;;;4990089;28;20871;-62
2021/08/02 06:32:32;;;;;;;0.68;0.38;;;23.50;61.60;;;;;;4993007;28;20758;-62
2021/08/02 06:34:57;;;;;;;1.23;0.50;;;23.50;61.60;;;;;;4993176;28;20386;-62
2021/08/02 06:37:23;;;;;;;1.50;0.40;;;23.50;61.60;;;;;;4988087;28;21427;-62
2021/08/02 06:39:50;;;;;;;0.70;0.40;;;23.50;61.60;;;;;;4996862;28;20431;-62
2021/08/02 06:42:16;;;;;;;0.80;0.50;;;23.50;61.70;;;;;;4992058;28;20424;-62
2021/08/02 06:44:42;;;;;;;0.90;0.45;;;23.50;61.60;;;;;;4992127;28;20425;-62
2021/08/02 06:47:08;;;;;;;0.80;0.50;;;23.50;61.60;;;;;;4996267;28;20405;-63
2021/08/02 06:49:34;;;;;;;0.70;0.40;;;23.50;61.50;;;;;;4992452;28;20393;-62
2021/08/02 06:52:01;;;;;;;0.70;0.40;;;23.50;61.50;;;;;;4996038;28;20470;-62
2021/08/02 06:54:27;;;;;;;0.60;0.40;;;23.50;61.50;;;;;;4997919;28;20389;-62
2021/08/02 06:56:53;;;;;;;0.57;0.30;;;23.50;61.60;;;;;;4997011;28;20405;-62
2021/08/02 06:59:18;;;;;;;0.73;0.43;;;23.50;61.50;;;;;;4996018;28;20780;-63
2021/08/02 07:01:44;;;;;;;0.90;0.50;;;23.50;61.50;;;;;;4992526;28;20456;-62
2021/08/02 07:04:10;;;;;;;0.80;0.40;;;23.50;61.60;;;;;;4987337;28;20394;-62
2021/08/02 07:06:36;;;;;;;0.63;0.40;;;23.50;61.50;;;;;;4992335;28;20875;-62
2021/08/02 07:09:02;;;;;;;0.80;0.40;;;23.50;61.60;;;;;;4995905;28;20382;-62
2021/08/02 07:11:28;;;;;;;0.70;0.40;;;23.50;61.60;;;;;;4986277;28;20407;-62
2021/08/02 07:13:54;;;;;;;0.70;0.35;;;23.50;61.60;;;;;;4991238;28;20392;-62
2021/08/02 07:16:23;;;;;;;0.70;0.30;;;23.50;61.60;;;;;;4991502;28;20512;-62
2021/08/02 07:18:51;;;;;;;1.58;0.50;;;23.50;61.60;;;;;;4992326;28;20406;-62
2021/08/02 07:21:18;;;;;;;0.70;0.40;;;23.50;61.60;;;;;;4996797;28;20408;-63
2021/08/02 07:23:43;;;;;;;0.90;0.50;;;23.50;61.70;;;;;;5026806;28;20435;-63
2021/08/02 07:26:09;;;;;;;0.68;0.40;;;23.50;61.60;;;;;;4995956;28;20456;-62
2021/08/02 07:28:35;;;;;;;0.70;0.40;;;23.50;61.60;;;;;;4996202;28;20424;-62
2021/08/02 07:31:00;;;;;;;0.82;0.40;;;23.50;61.60;;;;;;4992286;28;20396;-62
2021/08/02 07:33:26;;;;;;;0.80;0.50;;;23.50;61.60;;;;;;4991441;28;20402;-63
2021/08/02 07:35:51;;;;;;;0.70;0.40;;;23.50;61.60;;;;;;4991957;28;20407;-62
2021/08/02 07:38:17;;;;;;;0.90;0.50;;;23.50;61.60;;;;;;4991872;28;20402;-63
2021/08/02 07:40:43;;;;;;;0.80;0.50;;;23.50;61.60;;;;;;4995325;28;20901;-62
2021/08/02 07:43:08;;;;;;;0.85;0.40;;;23.50;61.60;;;;;;4991779;28;20402;-62
2021/08/02 07:45:35;;;;;;;0.80;0.43;;;23.50;61.60;;;;;;4990305;28;20435;-62
2021/08/02 07:48:01;;;;;;;0.57;0.40;;;23.50;61.60;;;;;;4992194;28;20843;-62
2021/08/02 07:50:27;;;;;;;1.13;0.40;;;23.50;61.60;;;;;;4991796;28;20398;-63
2021/08/02 07:52:52;;;;;;;0.93;0.45;;;23.50;61.50;;;;;;5021845;28;20389;-62
2021/08/02 07:55:18;;;;;;;0.70;0.40;;;23.50;61.60;;;;;;4990088;28;20407;-63
2021/08/02 07:57:44;;;;;;;0.60;0.40;;;23.50;61.60;;;;;;4990275;28;20704;-63
2021/08/02 08:00:11;;;;;;;0.80;0.43;;;23.50;61.60;;;;;;5027480;28;20721;-63
2021/08/02 08:02:37;;;;;;;1.23;0.40;;;23.50;61.60;;;;;;4990958;28;20437;-62
2021/08/02 08:05:03;;;;;;;0.90;0.45;;;23.50;61.60;;;;;;4992541;28;20912;-63
2021/08/02 08:07:29;;;;;;;0.90;0.50;;;23.50;61.50;;;;;;4996223;28;20448;-62
2021/08/02 08:09:54;;;;;;;1.10;0.50;;;23.50;61.50;;;;;;4990770;28;20395;-63
2021/08/02 08:12:20;;;;;;;0.60;0.37;;;23.50;61.50;;;;;;4984618;28;20414;-62
2021/08/02 08:14:46;;;;;;;0.90;0.50;;;23.60;61.60;;;;;;4995722;28;20723;-63
2021/08/02 08:17:11;;;;;;;0.80;0.40;;;23.50;61.50;;;;;;4988215;28;20540;-62
2021/08/02 08:19:39;;;;;;;0.80;0.40;;;23.50;61.50;;;;;;4991203;28;20402;-62
2021/08/02 08:22:06;;;;;;;0.90;0.50;;;23.50;61.60;;;;;;4986731;28;20728;-62
2021/08/02 08:24:32;;;;;;;0.80;0.40;;;23.60;61.40;;;;;;4990728;28;20405;-63
2021/08/02 08:26:57;;;;;;;1.07;0.50;;;23.60;61.50;;;;;;4989769;28;20821;-63
2021/08/02 08:29:26;;;;;;;0.77;0.40;;;23.60;61.50;;;;;;4988986;28;20420;-63
2021/08/02 08:31:51;;;;;;;0.80;0.52;;;23.60;61.50;;;;;;4990180;28;20402;-63
2021/08/02 08:34:17;;;;;;;1.57;0.57;;;23.60;61.20;;;;;;4994901;28;20415;-63
2021/08/02 08:36:43;;;;;;;1.23;0.65;;;23.60;61.10;;;;;;4990616;28;20397;-63
2021/08/02 08:39:08;;;;;;;2.43;0.80;;;23.60;61.30;;;;;;4986024;28;20418;-63
2021/08/02 08:41:35;;;;;;;0.88;0.50;;;23.60;61.30;;;;;;4983704;28;21147;-63
2021/08/02 08:44:01;;;;;;;0.90;0.40;;;23.60;61.00;;;;;;4985733;28;20394;-63
2021/08/02 08:46:27;;;;;;;0.90;0.57;;;23.60;61.10;;;;;;4984511;28;20916;-64
2021/08/02 08:48:53;;;;;;;1.30;0.50;;;23.60;60.80;;;;;;4984855;28;20391;-63
2021/08/02 08:51:20;;;;;;;0.93;0.50;;;23.60;60.80;;;;;;4984838;28;20424;-63
2021/08/02 08:53:46;;;;;;;0.88;0.45;;;23.60;61.00;;;;;;4984811;28;20431;-63
2021/08/02 08:56:15;;;;;;;0.80;0.50;;;23.60;61.00;;;;;;4987767;28;20753;-63
2021/08/02 08:58:42;;;;;;;0.73;0.47;;;23.60;61.10;;;;;;4984585;28;20395;-63
2021/08/02 09:01:07;;;;;;;0.80;0.47;;;23.60;61.20;;;;;;4984834;28;20391;-64
2021/08/02 09:03:33;;;;;;;0.97;0.40;;;23.60;61.10;;;;;;5016756;28;20461;-63
2021/08/02 09:06:08;;;;;;;0.90;0.50;;;23.60;61.20;;;;;;4986025;28;20453;-63
2021/08/02 09:08:41;;;;;;;0.93;0.50;;;23.60;61.00;;;;;;4984616;28;20398;-63
2021/08/02 09:11:07;;;;;;;1.10;0.60;;;23.60;61.20;;;;;;4984483;28;20481;-63
2021/08/02 09:13:35;;;;;;;1.30;0.70;;;23.50;61.10;;;;;;4985726;28;20830;-63
2021/08/02 09:16:22;;;;;;;0.90;0.40;;;23.50;61.10;;;;;;4986208;28;20426;-63
2021/08/02 09:19:03;;;;;;;1.00;0.50;;;23.60;61.10;;;;;;4984423;28;20500;-63
2021/08/02 09:21:46;;;;;;;0.90;0.40;;;23.50;61.20;;;;;;4985207;28;20827;-63
2021/08/02 09:24:13;;;;;;;1.23;0.50;;;23.50;61.10;;;;;;4984019;28;20394;-63
2021/08/02 09:26:41;;;;;;;0.70;0.40;;;23.50;61.20;;;;;;4985241;28;20429;-63
2021/08/02 09:29:09;;;;;;;1.00;0.50;;;23.50;61.00;;;;;;5015825;28;20410;-63
2021/08/02 09:31:48;;;;;;;0.80;0.43;;;23.50;61.00;;;;;;5016615;28;20764;-63
2021/08/02 09:34:13;;;;;;;0.70;0.50;;;23.50;61.20;;;;;;4983207;28;20400;-63
2021/08/02 09:36:43;;;;;;;1.00;0.60;;;23.50;61.20;;;;;;4983444;28;20860;-63
2021/08/02 09:39:11;;;;;;;1.20;0.50;;;23.50;61.10;;;;;;4983736;28;20422;-63
2021/08/02 09:41:36;;;;;;;0.80;0.50;;;23.50;61.00;;;;;;4984288;28;20418;-63
2021/08/02 09:44:05;;;;;;;1.00;0.60;;;23.50;61.00;;;;;;4983459;28;20401;-63
2021/08/02 09:46:31;;;;;;;0.73;0.45;;;23.50;61.00;;;;;;4983258;28;20428;-62
2021/08/02 09:49:05;;;;;;;0.98;0.50;;;23.50;61.10;;;;;;4985000;28;20469;-63
2021/08/02 09:51:42;;;;;;;0.80;0.50;;;23.50;61.10;;;;;;4983254;28;20398;-63
2021/08/02 09:54:09;;;;;;;0.98;0.70;;;23.50;61.10;;;;;;4983652;28;20399;-63
2021/08/02 09:56:35;;;;;;;0.80;0.50;;;23.50;61.10;;;;;;4983719;28;20398;-63
2021/08/02 09:59:07;;;;;;;0.95;0.50;;;23.50;61.20;;;;;;4984225;28;20422;-63
2021/08/02 10:01:32;;;;;;;0.98;0.60;;;23.50;61.20;;;;;;4983030;28;20478;-63
2021/08/02 10:03:59;;;;;;;1.20;0.50;;;23.50;61.10;;;;;;4985335;28;20957;-63
2021/08/02 10:06:24;;;;;;;0.98;0.60;;;23.50;61.20;;;;;;4983472;28;20429;-63
2021/08/02 10:08:50;;;;;;;0.80;0.50;;;23.50;61.20;;;;;;4983471;28;20399;-63
2021/08/02 10:11:17;;;;;;;1.05;0.60;;;23.50;61.00;;;;;;4985089;28;20879;-63
2021/08/02 10:13:44;;;;;;;1.33;0.77;;;23.50;61.10;;;;;;4982325;28;20397;-63
2021/08/02 10:16:15;;;;;;;1.00;0.60;;;23.50;61.20;;;;;;4984192;28;20409;-63
2021/08/02 10:18:48;;;;;;;1.00;0.53;;;23.50;61.00;;;;;;4982951;28;20562;-63
2021/08/02 10:21:14;;;;;;;0.93;0.60;;;23.50;61.00;;;;;;4984121;28;20453;-63
2021/08/02 10:23:40;;;;;;;1.05;0.60;;;23.50;61.00;;;;;;4982957;28;20407;-63
2021/08/02 10:26:29;;;;;;;0.97;0.60;;;23.50;61.00;;;;;;4983755;28;20421;-63
2021/08/02 10:29:02;;;;;;;1.00;0.50;;;23.50;60.90;;;;;;5014260;28;20438;-63
2021/08/02 10:31:29;;;;;;;0.88;0.60;;;23.50;61.00;;;;;;4983373;28;20752;-63
2021/08/02 10:33:55;;;;;;;1.15;0.60;;;23.50;61.30;;;;;;4983205;28;20844;-64
2021/08/02 10:36:22;;;;;;;1.00;0.60;;;23.50;61.00;;;;;;5016327;28;20843;-63
2021/08/02 10:38:53;;;;;;;0.80;0.50;;;23.50;61.00;;;;;;4987137;28;20492;-63
2021/08/02 10:41:32;;;;;;;0.82;0.52;;;23.50;61.20;;;;;;4987890;28;20386;-63
2021/08/02 10:44:10;;;;;;;1.20;0.50;;;23.50;61.10;;;;;;4987061;28;20582;-63
2021/08/02 10:46:36;;;;;;;1.58;0.70;;;23.50;61.00;;;;;;4989099;28;20500;-63
2021/08/02 10:49:09;;;;;;;1.55;0.70;;;23.50;61.00;;;;;;4987098;28;20392;-63
2021/08/02 10:51:55;;;;;;;0.98;0.60;;;23.50;61.00;;;;;;4990422;28;20422;-63
2021/08/02 10:54:21;;;;;;;1.10;0.60;;;23.50;60.80;;;;;;4987196;28;20453;-63
2021/08/02 10:56:51;;;;;;;0.80;0.60;;;23.50;61.00;;;;;;4985476;28;20387;-63
2021/08/02 10:59:21;;;;;;;1.40;0.57;;;23.50;60.80;;;;;;4986472;28;20403;-63
2021/08/02 11:01:53;;;;;;;1.17;0.70;;;23.50;60.90;;;;;;4986145;28;20402;-64
2021/08/02 11:04:21;;;;;;;1.10;0.70;;;23.50;60.80;;;;;;5018403;28;20398;-63
2021/08/02 11:06:48;;;;;;;1.25;0.60;;;23.50;60.70;;;;;;4986211;28;20424;-63
2021/08/02 11:09:15;;;;;;;1.50;0.63;;;23.50;60.90;;;;;;4986216;28;20774;-63
2021/08/02 11:11:41;;;;;;;0.90;0.60;;;23.50;60.80;;;;;;4987669;28;20865;-63
2021/08/02 11:14:15;;;;;;;0.93;0.68;;;23.50;60.90;;;;;;4985517;28;21035;-63
2021/08/02 11:16:52;;;;;;;1.42;0.80;;;23.50;60.90;;;;;;4986029;28;20744;-63
2021/08/02 11:19:23;;;;;;;1.10;0.65;;;23.50;60.90;;;;;;4985948;28;20917;-63
2021/08/02 11:22:06;;;;;;;1.33;0.60;;;23.50;60.90;;;;;;4986473;28;21172;-63
2021/08/02 11:24:53;;;;;;;1.45;0.60;;;23.50;60.80;;;;;;4986585;28;20398;-63
2021/08/02 11:27:19;;;;;;;1.25;0.80;;;23.50;60.70;;;;;;4987244;28;20461;-63
2021/08/02 11:29:51;;;;;;;1.45;0.70;;;23.50;60.80;;;;;;4985309;28;20414;-63
2021/08/02 11:32:21;;;;;;;1.17;0.60;;;23.50;60.90;;;;;;4987263;28;20879;-63
2021/08/02 11:34:55;;;;;;;1.00;0.60;;;23.50;60.90;;;;;;4985513;28;20394;-63
2021/08/02 11:37:26;;;;;;;1.10;0.60;;;23.50;60.90;;;;;;4986545;28;20962;-63
2021/08/02 11:39:59;;;;;;;1.00;0.70;;;23.50;60.80;;;;;;4986025;28;20811;-63
2021/08/02 11:42:28;;;;;;;1.00;0.70;;;23.50;60.90;;;;;;4985314;28;20410;-63
2021/08/02 11:44:56;;;;;;;1.20;0.70;;;23.50;60.70;;;;;;4987651;28;20398;-63
2021/08/02 11:47:27;;;;;;;1.23;0.77;;;23.50;60.60;;;;;;4985203;28;20878;-64
2021/08/02 11:49:55;;;;;;;1.30;0.83;;;23.50;60.70;;;;;;4985736;28;20391;-62
2021/08/02 11:52:24;;;;;;;1.52;0.68;;;23.50;60.70;;;;;;4986478;28;20417;-63
2021/08/02 11:55:12;;;;;;;7.68;7.10;;;23.50;60.70;;;;;;4987467;28;20398;-64
2021/08/02 11:57:39;;;;;;;3.97;3.67;;;23.50;60.80;;;;;;5018235;28;20582;-63
2021/08/02 12:00:16;;;;;;;86.82;79.78;;;23.60;60.60;;;;;;4986655;28;20802;-63
2021/08/02 12:02:43;;;;;;;89.40;81.60;;;23.70;60.80;;;;;;4988242;28;20475;-63
2021/08/02 12:05:28;;;;;;;80.22;73.25;;;23.80;60.80;;;;;;4985213;28;20972;-63
2021/08/02 12:07:56;;;;;;;63.80;58.20;;;23.90;60.80;;;;;;4984253;28;20416;-63
2021/08/02 12:10:24;;;;;;;52.80;48.25;;;23.90;60.60;;;;;;4985362;28;20403;-63
2021/08/02 12:13:01;;;;;;;43.67;39.88;;;24.10;60.40;;;;;;4985031;28;20419;-63
2021/08/02 12:15:28;;;;;;;33.47;30.55;;;24.10;60.20;;;;;;4984624;28;20930;-62
2021/08/02 12:17:55;;;;;;;29.10;26.60;;;24.40;59.60;;;;;;4988189;28;21250;-63
2021/08/02 12:20:47;;;;;;;24.15;22.05;;;24.70;58.50;;;;;;4987740;28;20390;-63
2021/08/02 12:23:22;;;;;;;19.02;17.33;;;24.90;57.60;;;;;;4983694;28;20406;-63
2021/08/02 12:25:48;;;;;;;15.77;14.27;;;24.90;57.20;;;;;;4981280;28;20418;-63
2021/08/02 12:28:14;;;;;;;14.65;13.25;;;24.70;57.10;;;;;;4983576;28;20390;-63
2021/08/02 12:30:43;;;;;;;13.57;12.45;;;24.70;57.40;;;;;;4983476;28;20439;-63
2021/08/02 12:33:10;;;;;;;12.40;11.30;;;24.60;57.70;;;;;;4984539;28;20383;-62
2021/08/02 12:35:36;;;;;;;11.18;10.07;;;24.50;57.80;;;;;;4983871;28;20398;-63
2021/08/02 12:38:04;;;;;;;11.38;10.27;;;24.40;57.90;;;;;;4983193;28;20793;-62
2021/08/02 12:40:31;;;;;;;11.63;9.20;;;24.40;58.10;;;;;;4985388;28;20504;-63
2021/08/02 12:42:57;;;;;;;10.25;9.25;;;24.30;58.20;;;;;;4982812;28;20405;-63
2021/08/02 12:45:23;;;;;;;9.85;8.00;;;24.30;58.20;;;;;;4984391;28;20421;-63
2021/08/02 12:47:50;;;;;;;8.37;7.57;;;24.20;58.30;;;;;;4984543;28;20454;-63
2021/08/02 12:50:17;;;;;;;8.20;7.45;;;24.20;58.30;;;;;;4987530;28;20416;-63
2021/08/02 12:52:48;;;;;;;8.07;7.18;;;24.20;58.40;;;;;;4994138;28;20439;-63